Aviation Digital Data Service (ADDS)

Output produced by METARs form (0615 UTC 28 July 2014)
found at http://aviationweather.gov/adds/metars/
 
KART 280531Z 2806/2906 05006KT P6SM SCT120 
     FM280800 03007KT 4SM SHRA VCTS BKN040CB OVC090 
     FM281000 03009KT 2SM +RA OVC040 
     FM281200 02011KT 2SM +RA BKN030 OVC040 
     FM281600 01012KT 2SM +RA BKN012 OVC040 
     FM282000 34012KT P6SM VCSH OVC035 
     FM282200 32010KT P6SM BKN045 
     FM290300 30007KT P6SM BKN050